FDX8483 KLAS-KCOS
Flight info
| Callsign | FDX8483 |
|---|---|
| Flight time | 1h 27m |
| Altitude | 35000 |
| Route | GIDGT3 TUKRR HBU DBRY5 |
| Aircraft | B77L/H-SDE1E2E3FGHIJ2J3J4J5M1RWXY/LB1D1 |
Departure
| Time | 2026-05-06 17:02 |
|---|---|
| Airport | Harry Reid International Airport (KLAS) |
Arrival
| Time | 2026-05-06 18:29 |
|---|---|
| Airport | City of Colorado Springs Municipal Airport (KCOS) |
| Time | Latitude | Longitude | Altitude | Speed | Heading |
|---|---|---|---|---|---|
| 2026-05-06 16:39 | 36.08041 | -115.12519 | 2195 ft | 0 kts | 91° |
| 2026-05-06 16:50 | 36.08041 | -115.12520 | 2195 ft | 1 kts | 91° |
| 2026-05-06 16:50 | 36.08041 | -115.12537 | 2195 ft | 3 kts | 91° |
| 2026-05-06 16:50 | 36.08044 | -115.12561 | 2195 ft | 3 kts | 110° |
| 2026-05-06 16:51 | 36.08054 | -115.12582 | 2195 ft | 3 kts | 133° |
| 2026-05-06 16:51 | 36.08071 | -115.12597 | 2195 ft | 3 kts | 154° |
| 2026-05-06 16:51 | 36.08090 | -115.12605 | 2195 ft | 3 kts | 173° |
| 2026-05-06 16:51 | 36.08100 | -115.12606 | 2195 ft | 0 kts | 180° |
| 2026-05-06 16:52 | 36.08053 | -115.12606 | 2195 ft | 8 kts | 180° |
| 2026-05-06 16:52 | 36.07994 | -115.12602 | 2195 ft | 11 kts | 176° |
| 2026-05-06 16:53 | 36.07924 | -115.12596 | 2195 ft | 9 kts | 176° |
| 2026-05-06 16:53 | 36.07908 | -115.12595 | 2195 ft | 0 kts | 175° |
| 2026-05-06 16:57 | 36.07907 | -115.12595 | 2195 ft | 0 kts | 175° |
| 2026-05-06 16:57 | 36.07861 | -115.12594 | 2195 ft | 11 kts | 185° |
| 2026-05-06 16:57 | 36.07797 | -115.12601 | 2195 ft | 8 kts | 181° |
| 2026-05-06 16:57 | 36.07756 | -115.12550 | 2195 ft | 10 kts | 99° |
| 2026-05-06 16:58 | 36.07754 | -115.12470 | 2195 ft | 10 kts | 91° |
| 2026-05-06 16:58 | 36.07753 | -115.12373 | 2195 ft | 13 kts | 90° |
| 2026-05-06 16:58 | 36.07753 | -115.12257 | 2195 ft | 13 kts | 88° |
| 2026-05-06 16:58 | 36.07751 | -115.12154 | 2195 ft | 11 kts | 113° |
| 2026-05-06 16:59 | 36.07718 | -115.12131 | 2195 ft | 7 kts | 179° |
| 2026-05-06 16:59 | 36.07715 | -115.12131 | 2195 ft | 0 kts | 179° |
| 2026-05-06 17:00 | 36.07702 | -115.12130 | 2195 ft | 9 kts | 179° |
| 2026-05-06 17:00 | 36.07637 | -115.12157 | 2195 ft | 13 kts | 244° |
| 2026-05-06 17:00 | 36.07632 | -115.12200 | 2195 ft | 0 kts | 272° |
| 2026-05-06 17:02 | 36.07633 | -115.12277 | 2195 ft | 39 kts | 270° |
| 2026-05-06 17:02 | 36.07633 | -115.12956 | 2195 ft | 118 kts | 270° |
| 2026-05-06 17:02 | 36.07634 | -115.14275 | 2199 ft | 186 kts | 270° |
| 2026-05-06 17:02 | 36.07630 | -115.15964 | 2909 ft | 200 kts | 270° |
| 2026-05-06 17:03 | 36.07589 | -115.17679 | 4056 ft | 193 kts | 269° |
| 2026-05-06 17:03 | 36.07552 | -115.19320 | 4989 ft | 192 kts | 270° |
| 2026-05-06 17:03 | 36.07555 | -115.21034 | 5531 ft | 209 kts | 271° |
| 2026-05-06 17:03 | 36.07578 | -115.22908 | 5947 ft | 229 kts | 271° |
| 2026-05-06 17:04 | 36.07620 | -115.24974 | 6161 ft | 248 kts | 274° |
| 2026-05-06 17:04 | 36.08084 | -115.27055 | 6526 ft | 257 kts | 298° |
| 2026-05-06 17:04 | 36.09323 | -115.28678 | 6973 ft | 265 kts | 324° |
| 2026-05-06 17:04 | 36.11030 | -115.29552 | 7410 ft | 269 kts | 346° |
| 2026-05-06 17:05 | 36.12891 | -115.29665 | 7774 ft | 270 kts | 9° |
| 2026-05-06 17:05 | 36.14660 | -115.28783 | 7990 ft | 280 kts | 30° |
| 2026-05-06 17:05 | 36.16191 | -115.27263 | 7979 ft | 285 kts | 44° |
| 2026-05-06 17:05 | 36.17454 | -115.25365 | 8006 ft | 287 kts | 54° |
| 2026-05-06 17:06 | 36.18415 | -115.23237 | 8005 ft | 287 kts | 64° |
| 2026-05-06 17:06 | 36.19130 | -115.20929 | 7989 ft | 287 kts | 72° |
| 2026-05-06 17:06 | 36.19516 | -115.18504 | 8237 ft | 287 kts | 83° |
| 2026-05-06 17:06 | 36.19650 | -115.16030 | 8684 ft | 290 kts | 87° |
| 2026-05-06 17:07 | 36.19683 | -115.13519 | 9141 ft | 293 kts | 89° |
| 2026-05-06 17:07 | 36.19665 | -115.10985 | 9589 ft | 295 kts | 90° |
| 2026-05-06 17:07 | 36.19645 | -115.08440 | 10041 ft | 295 kts | 89° |
| 2026-05-06 17:07 | 36.19648 | -115.05897 | 10493 ft | 296 kts | 88° |
| 2026-05-06 17:08 | 36.19654 | -115.03349 | 10944 ft | 296 kts | 88° |
| 2026-05-06 17:08 | 36.19656 | -115.00793 | 11392 ft | 297 kts | 87° |
| 2026-05-06 17:08 | 36.19656 | -114.98234 | 11854 ft | 298 kts | 87° |
| 2026-05-06 17:08 | 36.19655 | -114.95673 | 12304 ft | 297 kts | 86° |
| 2026-05-06 17:09 | 36.19648 | -114.93074 | 12764 ft | 312 kts | 87° |
| 2026-05-06 17:09 | 36.19641 | -114.90283 | 13224 ft | 334 kts | 87° |
| 2026-05-06 17:09 | 36.19632 | -114.87317 | 13685 ft | 355 kts | 87° |
| 2026-05-06 17:09 | 36.19622 | -114.84212 | 14141 ft | 373 kts | 87° |
| 2026-05-06 17:10 | 36.19613 | -114.80956 | 14593 ft | 383 kts | 87° |
| 2026-05-06 17:10 | 36.19604 | -114.77606 | 15035 ft | 393 kts | 87° |
| 2026-05-06 17:10 | 36.19592 | -114.74206 | 15484 ft | 395 kts | 87° |
| 2026-05-06 17:10 | 36.19582 | -114.70792 | 15943 ft | 397 kts | 87° |
| 2026-05-06 17:11 | 36.19572 | -114.67367 | 16393 ft | 399 kts | 87° |
| 2026-05-06 17:11 | 36.19565 | -114.63931 | 16835 ft | 401 kts | 87° |
| 2026-05-06 17:11 | 36.19574 | -114.60464 | 17293 ft | 403 kts | 86° |
| 2026-05-06 17:11 | 36.19580 | -114.56986 | 17742 ft | 405 kts | 86° |
| 2026-05-06 17:12 | 36.19574 | -114.53487 | 18190 ft | 408 kts | 87° |
| 2026-05-06 17:12 | 36.19560 | -114.49977 | 18644 ft | 409 kts | 87° |
| 2026-05-06 17:12 | 36.19543 | -114.46438 | 19097 ft | 411 kts | 86° |
| 2026-05-06 17:12 | 36.19525 | -114.42883 | 19544 ft | 414 kts | 87° |
| 2026-05-06 17:13 | 36.19506 | -114.39355 | 19989 ft | 417 kts | 86° |
| 2026-05-06 17:13 | 36.19486 | -114.35751 | 20440 ft | 419 kts | 86° |
| 2026-05-06 17:13 | 36.19465 | -114.32135 | 20891 ft | 421 kts | 86° |
| 2026-05-06 17:13 | 36.19485 | -114.28499 | 21346 ft | 423 kts | 83° |
| 2026-05-06 17:14 | 36.19804 | -114.24895 | 21793 ft | 421 kts | 76° |
| 2026-05-06 17:14 | 36.20451 | -114.21345 | 22160 ft | 422 kts | 72° |
| 2026-05-06 17:14 | 36.21217 | -114.17833 | 22517 ft | 423 kts | 71° |
| 2026-05-06 17:14 | 36.22055 | -114.14346 | 22897 ft | 424 kts | 69° |
| 2026-05-06 17:15 | 36.22949 | -114.10852 | 23275 ft | 425 kts | 69° |
| 2026-05-06 17:15 | 36.23864 | -114.07361 | 23650 ft | 427 kts | 69° |
| 2026-05-06 17:15 | 36.24784 | -114.03858 | 24025 ft | 429 kts | 68° |
| 2026-05-06 17:15 | 36.25700 | -114.00373 | 24398 ft | 431 kts | 68° |
| 2026-05-06 17:16 | 36.26630 | -113.96835 | 24776 ft | 433 kts | 68° |
| 2026-05-06 17:16 | 36.27564 | -113.93273 | 25153 ft | 434 kts | 68° |
| 2026-05-06 17:16 | 36.28499 | -113.89706 | 25528 ft | 436 kts | 68° |
| 2026-05-06 17:16 | 36.29437 | -113.86123 | 25904 ft | 438 kts | 68° |
| 2026-05-06 17:17 | 36.30384 | -113.82520 | 26281 ft | 439 kts | 68° |
| 2026-05-06 17:17 | 36.31351 | -113.78927 | 26659 ft | 440 kts | 68° |
| 2026-05-06 17:17 | 36.32322 | -113.75313 | 27036 ft | 442 kts | 68° |
| 2026-05-06 17:17 | 36.33290 | -113.71680 | 27413 ft | 444 kts | 68° |
| 2026-05-06 17:18 | 36.34243 | -113.68079 | 27783 ft | 446 kts | 68° |
| 2026-05-06 17:18 | 36.35208 | -113.64415 | 28158 ft | 448 kts | 68° |
| 2026-05-06 17:18 | 36.36174 | -113.60735 | 28535 ft | 450 kts | 68° |
| 2026-05-06 17:18 | 36.37142 | -113.57037 | 28912 ft | 451 kts | 68° |
| 2026-05-06 17:19 | 36.38112 | -113.53324 | 29289 ft | 453 kts | 68° |
| 2026-05-06 17:19 | 36.39084 | -113.49595 | 29664 ft | 455 kts | 68° |
| 2026-05-06 17:19 | 36.40059 | -113.45851 | 30039 ft | 457 kts | 68° |
| 2026-05-06 17:19 | 36.41036 | -113.42092 | 30415 ft | 458 kts | 67° |
| 2026-05-06 17:20 | 36.41683 | -113.39598 | 30665 ft | 458 kts | 67° |
| 2026-05-06 17:20 | 36.42659 | -113.35833 | 31040 ft | 457 kts | 67° |
| 2026-05-06 17:20 | 36.43631 | -113.32078 | 31416 ft | 456 kts | 67° |
| 2026-05-06 17:20 | 36.44597 | -113.28340 | 31791 ft | 454 kts | 67° |
| 2026-05-06 17:21 | 36.45557 | -113.24619 | 32166 ft | 453 kts | 67° |
| 2026-05-06 17:21 | 36.46517 | -113.20895 | 32542 ft | 451 kts | 67° |
| 2026-05-06 17:21 | 36.47472 | -113.17182 | 32917 ft | 450 kts | 67° |
| 2026-05-06 17:21 | 36.48424 | -113.13479 | 33292 ft | 449 kts | 67° |
| 2026-05-06 17:22 | 36.49373 | -113.09780 | 33666 ft | 448 kts | 67° |
| 2026-05-06 17:22 | 36.50320 | -113.06082 | 34042 ft | 447 kts | 67° |
| 2026-05-06 17:22 | 36.51259 | -113.02412 | 34415 ft | 446 kts | 67° |
| 2026-05-06 17:22 | 36.52187 | -112.98778 | 34785 ft | 447 kts | 68° |
| 2026-05-06 17:23 | 36.53129 | -112.95088 | 35159 ft | 449 kts | 68° |
| 2026-05-06 17:23 | 36.54076 | -112.91368 | 35464 ft | 451 kts | 68° |
| 2026-05-06 17:23 | 36.55023 | -112.87647 | 35764 ft | 452 kts | 68° |
| 2026-05-06 17:23 | 36.55970 | -112.83916 | 36063 ft | 453 kts | 68° |
| 2026-05-06 17:24 | 36.56919 | -112.80175 | 36363 ft | 454 kts | 68° |
| 2026-05-06 17:24 | 36.57869 | -112.76427 | 36663 ft | 454 kts | 68° |
| 2026-05-06 17:24 | 36.58817 | -112.72678 | 36959 ft | 454 kts | 69° |
| 2026-05-06 17:24 | 36.59765 | -112.68922 | 37146 ft | 456 kts | 69° |
| 2026-05-06 17:25 | 36.60720 | -112.65127 | 37178 ft | 463 kts | 69° |
| 2026-05-06 17:25 | 36.62656 | -112.57423 | 37182 ft | 468 kts | 69° |
| 2026-05-06 17:26 | 36.64609 | -112.49663 | 37165 ft | 470 kts | 69° |
| 2026-05-06 17:26 | 36.66539 | -112.41934 | 37149 ft | 470 kts | 69° |
| 2026-05-06 17:27 | 36.68465 | -112.34190 | 37154 ft | 465 kts | 69° |
| 2026-05-06 17:27 | 36.70395 | -112.26422 | 37146 ft | 472 kts | 69° |
| 2026-05-06 17:28 | 36.72335 | -112.18584 | 37129 ft | 476 kts | 69° |
| 2026-05-06 17:28 | 36.74267 | -112.10767 | 37131 ft | 469 kts | 69° |
| 2026-05-06 17:29 | 36.76190 | -112.02983 | 37120 ft | 470 kts | 69° |
| 2026-05-06 17:29 | 36.78142 | -111.95151 | 37104 ft | 476 kts | 70° |
| 2026-05-06 17:30 | 36.80086 | -111.87163 | 37103 ft | 485 kts | 70° |
| 2026-05-06 17:30 | 36.82035 | -111.79118 | 37091 ft | 481 kts | 70° |
| 2026-05-06 17:31 | 36.83947 | -111.71195 | 37083 ft | 476 kts | 70° |
| 2026-05-06 17:31 | 36.86006 | -111.63351 | 37081 ft | 479 kts | 65° |
| 2026-05-06 17:32 | 36.88700 | -111.55722 | 37081 ft | 481 kts | 61° |
| 2026-05-06 17:32 | 36.91626 | -111.48193 | 37067 ft | 480 kts | 61° |
| 2026-05-06 17:33 | 36.94468 | -111.40699 | 37071 ft | 474 kts | 62° |
| 2026-05-06 17:33 | 36.97241 | -111.33253 | 37068 ft | 474 kts | 62° |
| 2026-05-06 17:34 | 36.99993 | -111.25782 | 37061 ft | 471 kts | 61° |
| 2026-05-06 17:34 | 37.02739 | -111.18459 | 37070 ft | 463 kts | 61° |
| 2026-05-06 17:35 | 37.05476 | -111.11083 | 37092 ft | 472 kts | 62° |
| 2026-05-06 17:35 | 37.08255 | -111.03535 | 37091 ft | 479 kts | 62° |
| 2026-05-06 17:36 | 37.12395 | -110.92211 | 37106 ft | 476 kts | 62° |
| 2026-05-06 17:36 | 37.15146 | -110.84667 | 37095 ft | 475 kts | 62° |
| 2026-05-06 17:37 | 37.17883 | -110.77136 | 37100 ft | 476 kts | 62° |
| 2026-05-06 17:37 | 37.20635 | -110.69542 | 37115 ft | 479 kts | 62° |
| 2026-05-06 17:38 | 37.23383 | -110.61948 | 37097 ft | 481 kts | 62° |
| 2026-05-06 17:38 | 37.26145 | -110.54288 | 37110 ft | 482 kts | 62° |
| 2026-05-06 17:39 | 37.28919 | -110.46582 | 37105 ft | 484 kts | 63° |
| 2026-05-06 17:39 | 37.31660 | -110.38944 | 37105 ft | 474 kts | 63° |
| 2026-05-06 17:40 | 37.34370 | -110.31365 | 37111 ft | 479 kts | 62° |
| 2026-05-06 17:40 | 37.37122 | -110.23664 | 37121 ft | 485 kts | 62° |
| 2026-05-06 17:41 | 37.39885 | -110.15905 | 37116 ft | 487 kts | 63° |
| 2026-05-06 17:41 | 37.42626 | -110.08202 | 37114 ft | 475 kts | 63° |
| 2026-05-06 17:42 | 37.45307 | -110.00642 | 37115 ft | 473 kts | 62° |
| 2026-05-06 17:42 | 37.48009 | -109.93019 | 37113 ft | 481 kts | 63° |
| 2026-05-06 17:43 | 37.50716 | -109.85334 | 37112 ft | 485 kts | 63° |
| 2026-05-06 17:43 | 37.53447 | -109.77551 | 37103 ft | 486 kts | 63° |
| 2026-05-06 17:44 | 37.56175 | -109.69768 | 37106 ft | 486 kts | 63° |
| 2026-05-06 17:44 | 37.58917 | -109.61945 | 37115 ft | 489 kts | 63° |
| 2026-05-06 17:45 | 37.61666 | -109.54066 | 37123 ft | 491 kts | 63° |
| 2026-05-06 17:45 | 37.64410 | -109.46194 | 37108 ft | 489 kts | 63° |
| 2026-05-06 17:46 | 37.67131 | -109.38359 | 37119 ft | 487 kts | 63° |
| 2026-05-06 17:46 | 37.69830 | -109.30542 | 37121 ft | 490 kts | 64° |
| 2026-05-06 17:47 | 37.72566 | -109.22626 | 37119 ft | 493 kts | 63° |
| 2026-05-06 17:47 | 37.75309 | -109.14653 | 37104 ft | 495 kts | 63° |
| 2026-05-06 17:48 | 37.78045 | -109.06691 | 37122 ft | 491 kts | 63° |
| 2026-05-06 17:48 | 37.80778 | -108.98698 | 37111 ft | 500 kts | 64° |
| 2026-05-06 17:49 | 37.83551 | -108.90575 | 37120 ft | 504 kts | 64° |
| 2026-05-06 17:49 | 37.86333 | -108.82425 | 37132 ft | 505 kts | 64° |
| 2026-05-06 17:50 | 37.89094 | -108.74303 | 37127 ft | 506 kts | 64° |
| 2026-05-06 17:50 | 37.91871 | -108.66117 | 37132 ft | 506 kts | 64° |
| 2026-05-06 17:51 | 37.94643 | -108.57897 | 37130 ft | 510 kts | 64° |
| 2026-05-06 17:51 | 37.97444 | -108.49589 | 37140 ft | 514 kts | 64° |
| 2026-05-06 17:52 | 38.00261 | -108.41194 | 37139 ft | 518 kts | 64° |
| 2026-05-06 17:52 | 38.03047 | -108.32869 | 37056 ft | 512 kts | 64° |
| 2026-05-06 17:53 | 38.04433 | -108.28728 | 36744 ft | 509 kts | 64° |
| 2026-05-06 17:53 | 38.05814 | -108.24593 | 36494 ft | 508 kts | 64° |
| 2026-05-06 17:53 | 38.07188 | -108.20470 | 36244 ft | 508 kts | 63° |
| 2026-05-06 17:53 | 38.08565 | -108.16333 | 35994 ft | 508 kts | 63° |
| 2026-05-06 17:54 | 38.09937 | -108.12204 | 35745 ft | 508 kts | 63° |
| 2026-05-06 17:54 | 38.11289 | -108.08131 | 35499 ft | 507 kts | 63° |
| 2026-05-06 17:54 | 38.12661 | -108.03990 | 35248 ft | 507 kts | 63° |
| 2026-05-06 17:54 | 38.14025 | -107.99867 | 35155 ft | 506 kts | 63° |
| 2026-05-06 17:55 | 38.16751 | -107.91612 | 35151 ft | 506 kts | 63° |
| 2026-05-06 17:55 | 38.19474 | -107.83341 | 35146 ft | 507 kts | 63° |
| 2026-05-06 17:56 | 38.22192 | -107.75063 | 35142 ft | 506 kts | 63° |
| 2026-05-06 17:56 | 38.24880 | -107.66849 | 35140 ft | 507 kts | 63° |
| 2026-05-06 17:57 | 38.27590 | -107.58549 | 35134 ft | 507 kts | 64° |
| 2026-05-06 17:57 | 38.30291 | -107.50248 | 35132 ft | 507 kts | 64° |
| 2026-05-06 17:58 | 38.32989 | -107.41938 | 35125 ft | 508 kts | 64° |
| 2026-05-06 17:58 | 38.35718 | -107.33619 | 35115 ft | 509 kts | 64° |
| 2026-05-06 17:59 | 38.38388 | -107.25317 | 35104 ft | 510 kts | 64° |
| 2026-05-06 17:59 | 38.41069 | -107.16933 | 35092 ft | 511 kts | 64° |
| 2026-05-06 18:00 | 38.43730 | -107.08517 | 35077 ft | 513 kts | 67° |
| 2026-05-06 18:00 | 38.45203 | -106.99545 | 35073 ft | 523 kts | 85° |
| 2026-05-06 18:01 | 38.44835 | -106.90251 | 34835 ft | 525 kts | 95° |
| 2026-05-06 18:01 | 38.44458 | -106.85682 | 34394 ft | 526 kts | 95° |
| 2026-05-06 18:01 | 38.44103 | -106.80978 | 33914 ft | 526 kts | 94° |
| 2026-05-06 18:02 | 38.43799 | -106.76390 | 33445 ft | 526 kts | 94° |
| 2026-05-06 18:02 | 38.43523 | -106.71741 | 32970 ft | 526 kts | 93° |
| 2026-05-06 18:02 | 38.43260 | -106.67068 | 32493 ft | 527 kts | 93° |
| 2026-05-06 18:02 | 38.43000 | -106.62396 | 32018 ft | 529 kts | 94° |
| 2026-05-06 18:03 | 38.42750 | -106.57717 | 31544 ft | 530 kts | 93° |
| 2026-05-06 18:03 | 38.42528 | -106.53025 | 31069 ft | 530 kts | 93° |
| 2026-05-06 18:03 | 38.42298 | -106.48350 | 30595 ft | 527 kts | 94° |
| 2026-05-06 18:03 | 38.42076 | -106.44050 | 30156 ft | 524 kts | 94° |
| 2026-05-06 18:04 | 38.41826 | -106.39346 | 29673 ft | 520 kts | 94° |
| 2026-05-06 18:04 | 38.41577 | -106.34760 | 29198 ft | 517 kts | 94° |
| 2026-05-06 18:04 | 38.41326 | -106.30199 | 28724 ft | 513 kts | 94° |
| 2026-05-06 18:04 | 38.41075 | -106.25684 | 28252 ft | 509 kts | 95° |
| 2026-05-06 18:05 | 38.40824 | -106.21197 | 27780 ft | 505 kts | 94° |
| 2026-05-06 18:05 | 38.40572 | -106.16738 | 27305 ft | 501 kts | 94° |
| 2026-05-06 18:05 | 38.40321 | -106.12320 | 26830 ft | 497 kts | 94° |
| 2026-05-06 18:05 | 38.40071 | -106.07941 | 26356 ft | 493 kts | 94° |
| 2026-05-06 18:06 | 38.39821 | -106.03607 | 25884 ft | 489 kts | 94° |
| 2026-05-06 18:06 | 38.39571 | -105.99300 | 25412 ft | 484 kts | 94° |
| 2026-05-06 18:06 | 38.39326 | -105.95100 | 24945 ft | 480 kts | 94° |
| 2026-05-06 18:06 | 38.39077 | -105.90866 | 24469 ft | 476 kts | 94° |
| 2026-05-06 18:07 | 38.38829 | -105.86666 | 23996 ft | 473 kts | 94° |
| 2026-05-06 18:07 | 38.38582 | -105.82509 | 23523 ft | 469 kts | 94° |
| 2026-05-06 18:07 | 38.38335 | -105.78376 | 23050 ft | 464 kts | 94° |
| 2026-05-06 18:07 | 38.38090 | -105.74297 | 22577 ft | 461 kts | 94° |
| 2026-05-06 18:08 | 38.37843 | -105.70221 | 22100 ft | 458 kts | 94° |
| 2026-05-06 18:08 | 38.37598 | -105.66187 | 21624 ft | 456 kts | 94° |
| 2026-05-06 18:08 | 38.37355 | -105.62217 | 21156 ft | 453 kts | 94° |
| 2026-05-06 18:08 | 38.37109 | -105.58220 | 20680 ft | 449 kts | 94° |
| 2026-05-06 18:09 | 38.36875 | -105.54271 | 20200 ft | 444 kts | 94° |
| 2026-05-06 18:09 | 38.36628 | -105.50366 | 19732 ft | 440 kts | 95° |
| 2026-05-06 18:09 | 38.36382 | -105.46488 | 19266 ft | 437 kts | 95° |
| 2026-05-06 18:09 | 38.36139 | -105.42631 | 18789 ft | 434 kts | 95° |
| 2026-05-06 18:10 | 38.35979 | -105.40099 | 18478 ft | 433 kts | 95° |
| 2026-05-06 18:10 | 38.35737 | -105.36291 | 18002 ft | 430 kts | 95° |
| 2026-05-06 18:10 | 38.35495 | -105.32515 | 17529 ft | 426 kts | 95° |
| 2026-05-06 18:10 | 38.35252 | -105.28770 | 17055 ft | 422 kts | 95° |
| 2026-05-06 18:11 | 38.35014 | -105.25057 | 16585 ft | 418 kts | 95° |
| 2026-05-06 18:11 | 38.34779 | -105.21377 | 16119 ft | 414 kts | 95° |
| 2026-05-06 18:11 | 38.34546 | -105.17730 | 15644 ft | 411 kts | 95° |
| 2026-05-06 18:11 | 38.34307 | -105.14117 | 15172 ft | 407 kts | 95° |
| 2026-05-06 18:12 | 38.34073 | -105.10540 | 14702 ft | 403 kts | 95° |
| 2026-05-06 18:12 | 38.33837 | -105.07001 | 14232 ft | 399 kts | 95° |
| 2026-05-06 18:12 | 38.33618 | -105.03527 | 13762 ft | 395 kts | 95° |
| 2026-05-06 18:12 | 38.33408 | -105.00063 | 13445 ft | 388 kts | 95° |
| 2026-05-06 18:13 | 38.33187 | -104.96667 | 13365 ft | 381 kts | 95° |
| 2026-05-06 18:13 | 38.32959 | -104.93303 | 13294 ft | 379 kts | 95° |
| 2026-05-06 18:13 | 38.32730 | -104.89956 | 13235 ft | 379 kts | 96° |
| 2026-05-06 18:13 | 38.32497 | -104.86599 | 13202 ft | 379 kts | 96° |
| 2026-05-06 18:14 | 38.32264 | -104.83256 | 13201 ft | 380 kts | 96° |
| 2026-05-06 18:14 | 38.32031 | -104.79906 | 13201 ft | 380 kts | 95° |
| 2026-05-06 18:14 | 38.32008 | -104.76546 | 13195 ft | 380 kts | 84° |
| 2026-05-06 18:14 | 38.32723 | -104.73317 | 13201 ft | 380 kts | 65° |
| 2026-05-06 18:15 | 38.34214 | -104.70551 | 13208 ft | 379 kts | 47° |
| 2026-05-06 18:15 | 38.36173 | -104.68304 | 13206 ft | 379 kts | 36° |
| 2026-05-06 18:15 | 38.38435 | -104.66706 | 13200 ft | 377 kts | 20° |
| 2026-05-06 18:15 | 38.41023 | -104.66103 | 13204 ft | 374 kts | 360° |
| 2026-05-06 18:16 | 38.43538 | -104.66616 | 13207 ft | 371 kts | 341° |
| 2026-05-06 18:16 | 38.45881 | -104.67985 | 13208 ft | 370 kts | 330° |
| 2026-05-06 18:16 | 38.48186 | -104.69460 | 13197 ft | 372 kts | 336° |
| 2026-05-06 18:16 | 38.50659 | -104.70419 | 13196 ft | 373 kts | 347° |
| 2026-05-06 18:17 | 38.53233 | -104.70825 | 13197 ft | 373 kts | 354° |
| 2026-05-06 18:17 | 38.55816 | -104.71191 | 13191 ft | 373 kts | 351° |
| 2026-05-06 18:17 | 38.58400 | -104.71570 | 13200 ft | 374 kts | 354° |
| 2026-05-06 18:17 | 38.60985 | -104.71894 | 13119 ft | 372 kts | 349° |
| 2026-05-06 18:18 | 38.63425 | -104.72913 | 12866 ft | 369 kts | 331° |
| 2026-05-06 18:18 | 38.65422 | -104.74900 | 12615 ft | 360 kts | 311° |
| 2026-05-06 18:18 | 38.66714 | -104.77572 | 12362 ft | 350 kts | 291° |
| 2026-05-06 18:18 | 38.67182 | -104.80532 | 12124 ft | 340 kts | 273° |
| 2026-05-06 18:19 | 38.67013 | -104.83499 | 11870 ft | 331 kts | 257° |
| 2026-05-06 18:19 | 38.66069 | -104.86142 | 11617 ft | 325 kts | 235° |
| 2026-05-06 18:19 | 38.64433 | -104.88078 | 11363 ft | 319 kts | 212° |
| 2026-05-06 18:19 | 38.62376 | -104.89035 | 11117 ft | 314 kts | 191° |
| 2026-05-06 18:20 | 38.60213 | -104.89173 | 10877 ft | 308 kts | 180° |
| 2026-05-06 18:20 | 38.58093 | -104.89133 | 10632 ft | 303 kts | 180° |
| 2026-05-06 18:20 | 38.55992 | -104.89117 | 10382 ft | 299 kts | 180° |
| 2026-05-06 18:20 | 38.53931 | -104.89105 | 10132 ft | 295 kts | 180° |
| 2026-05-06 18:21 | 38.51881 | -104.89087 | 9891 ft | 291 kts | 178° |
| 2026-05-06 18:21 | 38.49942 | -104.88639 | 9719 ft | 278 kts | 159° |
| 2026-05-06 18:21 | 38.48403 | -104.87263 | 9504 ft | 266 kts | 132° |
| 2026-05-06 18:21 | 38.47572 | -104.85232 | 9251 ft | 257 kts | 104° |
| 2026-05-06 18:22 | 38.47592 | -104.83016 | 9007 ft | 247 kts | 77° |
| 2026-05-06 18:22 | 38.48170 | -104.81014 | 8759 ft | 241 kts | 68° |
| 2026-05-06 18:22 | 38.48939 | -104.79149 | 8493 ft | 235 kts | 54° |
| 2026-05-06 18:22 | 38.50132 | -104.77785 | 8288 ft | 228 kts | 37° |
| 2026-05-06 18:23 | 38.51458 | -104.76685 | 8053 ft | 227 kts | 34° |
| 2026-05-06 18:23 | 38.52750 | -104.75596 | 7998 ft | 217 kts | 34° |
| 2026-05-06 18:23 | 38.53984 | -104.74568 | 7985 ft | 206 kts | 34° |
| 2026-05-06 18:23 | 38.55169 | -104.73587 | 7989 ft | 200 kts | 34° |
| 2026-05-06 18:24 | 38.56314 | -104.72645 | 7989 ft | 192 kts | 32° |
| 2026-05-06 18:24 | 38.57514 | -104.71961 | 7989 ft | 186 kts | 19° |
| 2026-05-06 18:24 | 38.58773 | -104.71664 | 7986 ft | 183 kts | 8° |
| 2026-05-06 18:24 | 38.60019 | -104.71593 | 7992 ft | 182 kts | 3° |
| 2026-05-06 18:25 | 38.61281 | -104.71595 | 7993 ft | 181 kts | 1° |
| 2026-05-06 18:25 | 38.62539 | -104.71603 | 7993 ft | 181 kts | 1° |
| 2026-05-06 18:25 | 38.63796 | -104.71606 | 7991 ft | 181 kts | 2° |
| 2026-05-06 18:25 | 38.65057 | -104.71607 | 7993 ft | 181 kts | 2° |
| 2026-05-06 18:26 | 38.66317 | -104.71607 | 7990 ft | 181 kts | 2° |
| 2026-05-06 18:26 | 38.67572 | -104.71606 | 7989 ft | 179 kts | 2° |
| 2026-05-06 18:26 | 38.68808 | -104.71604 | 8006 ft | 176 kts | 2° |
| 2026-05-06 18:26 | 38.70039 | -104.71603 | 8003 ft | 176 kts | 2° |
| 2026-05-06 18:27 | 38.71264 | -104.71602 | 7788 ft | 175 kts | 2° |
| 2026-05-06 18:27 | 38.72457 | -104.71600 | 7564 ft | 168 kts | 2° |
| 2026-05-06 18:27 | 38.73633 | -104.71599 | 7315 ft | 168 kts | 2° |
| 2026-05-06 18:27 | 38.74770 | -104.71598 | 7088 ft | 164 kts | 1° |
| 2026-05-06 18:28 | 38.75906 | -104.71597 | 6869 ft | 161 kts | 0° |
| 2026-05-06 18:28 | 38.77009 | -104.71595 | 6665 ft | 157 kts | 0° |
| 2026-05-06 18:28 | 38.78105 | -104.71594 | 6461 ft | 160 kts | 0° |
| 2026-05-06 18:28 | 38.79235 | -104.71594 | 6252 ft | 162 kts | 0° |
| 2026-05-06 18:29 | 38.80304 | -104.71594 | 6199 ft | 138 kts | 360° |
| 2026-05-06 18:29 | 38.81042 | -104.71593 | 6198 ft | 74 kts | 1° |
| 2026-05-06 18:29 | 38.81463 | -104.71592 | 6198 ft | 52 kts | 359° |
| 2026-05-06 18:29 | 38.81785 | -104.71592 | 6198 ft | 42 kts | 359° |
| 2026-05-06 18:30 | 38.82058 | -104.71592 | 6198 ft | 37 kts | 0° |
| 2026-05-06 18:30 | 38.82204 | -104.71597 | 6198 ft | 3 kts | 325° |
| 2026-05-06 18:30 | 38.82204 | -104.71645 | 6198 ft | 8 kts | 226° |
| 2026-05-06 18:30 | 38.82112 | -104.71669 | 6198 ft | 19 kts | 183° |
| 2026-05-06 18:31 | 38.81966 | -104.71673 | 6198 ft | 22 kts | 181° |
| 2026-05-06 18:31 | 38.81815 | -104.71674 | 6198 ft | 22 kts | 178° |
| 2026-05-06 18:31 | 38.81665 | -104.71675 | 6198 ft | 21 kts | 180° |
| 2026-05-06 18:31 | 38.81516 | -104.71676 | 6198 ft | 21 kts | 180° |
| 2026-05-06 18:32 | 38.81359 | -104.71677 | 6198 ft | 26 kts | 180° |
| 2026-05-06 18:32 | 38.81183 | -104.71677 | 6198 ft | 20 kts | 179° |
| 2026-05-06 18:32 | 38.81115 | -104.71736 | 6198 ft | 15 kts | 264° |
| 2026-05-06 18:32 | 38.81081 | -104.71836 | 6198 ft | 9 kts | 204° |
| 2026-05-06 18:33 | 38.81054 | -104.71875 | 6198 ft | 4 kts | 263° |
| 2026-05-06 18:33 | 38.81054 | -104.71884 | 6198 ft | 0 kts | 268° |